Time;durP1;ratioP1;P1;durP2;ratioP2;P2;SDS_P1;SDS_P2;PMS_P1;PMS_P2;Temp;Humidity;BMP_temperature;BMP_pressure;BME280_temperature;BME280_humidity;BME280_pressure;Samples;Min_cycle;Max_cycle;Signal;HPM_P1;HPM_P2
2023/10/23 00:01:43;;;;;;;6.05;1.42;;;;;;;;;;5040485;28;20053;-73
2023/10/23 00:04:09;;;;;;;4.05;1.52;;;;;;;;;;5045419;28;20520;-73
2023/10/23 00:06:36;;;;;;;3.30;1.90;;;;;;;;;;5036026;28;20174;-73
2023/10/23 00:09:03;;;;;;;5.32;2.08;;;;;;;;;;5041085;28;20049;-73
2023/10/23 00:11:30;;;;;;;11.48;2.20;;;;;;;;;;5040250;28;20137;-73
2023/10/23 00:13:56;;;;;;;2.65;1.50;;;;;;;;;;5039665;28;20128;-73
2023/10/23 00:16:23;;;;;;;3.88;1.60;;;;;;;;;;5037806;28;20084;-73
2023/10/23 00:18:51;;;;;;;7.72;2.53;;;;;;;;;;5046071;28;20049;-73
2023/10/23 00:21:17;;;;;;;9.43;2.30;;;;;;;;;;5047266;28;20807;-73
2023/10/23 00:23:44;;;;;;;3.40;2.00;;;;;;;;;;5035161;28;20052;-73
2023/10/23 00:26:10;;;;;;;7.25;2.33;;;;;;;;;;5036515;28;20049;-73
2023/10/23 00:28:37;;;;;;;3.75;2.45;;;;;;;;;;5041712;28;20642;-74
2023/10/23 00:31:03;;;;;;;3.30;1.33;;;;;;;;;;5035276;28;20046;-73
2023/10/23 00:33:30;;;;;;;3.40;1.67;;;;;;;;;;5030133;28;20387;-73
2023/10/23 00:35:57;;;;;;;5.18;2.08;;;;;;;;;;5041944;28;20095;-74
2023/10/23 00:38:23;;;;;;;3.33;1.67;;;;;;;;;;5036499;28;20132;-74
2023/10/23 00:40:49;;;;;;;6.40;1.70;;;;;;;;;;5030602;28;20506;-73
2023/10/23 00:43:23;;;;;;;6.13;1.80;;;;;;;;;;5045431;28;20041;-73
2023/10/23 00:45:51;;;;;;;5.45;2.42;;;;;;;;;;5059094;28;20076;-74
2023/10/23 00:48:20;;;;;;;4.20;1.88;;;;;;;;;;5046739;28;20270;-73
2023/10/23 00:50:47;;;;;;;5.45;2.40;;;;;;;;;;5035923;28;20103;-73
2023/10/23 00:53:14;;;;;;;4.15;2.33;;;;;;;;;;5031121;28;20087;-74
2023/10/23 00:55:40;;;;;;;4.95;2.20;;;;;;;;;;5042021;28;20128;-73
2023/10/23 00:58:07;;;;;;;4.47;1.90;;;;;;;;;;5046375;28;20128;-73
2023/10/23 01:00:35;;;;;;;4.88;2.35;;;;;;;;;;5030431;28;20053;-72
2023/10/23 01:03:01;;;;;;;5.10;2.08;;;;;;;;;;5045876;28;20129;-73
2023/10/23 01:05:28;;;;;;;3.28;2.42;;;;;;;;;;5028637;28;20500;-74
2023/10/23 01:07:55;;;;;;;5.13;2.35;;;;;;;;;;5039292;28;20104;-73
2023/10/23 01:10:21;;;;;;;5.53;1.70;;;;;;;;;;5037914;28;20073;-73
2023/10/23 01:12:48;;;;;;;7.47;2.15;;;;;;;;;;5043237;28;20045;-73
2023/10/23 01:15:14;;;;;;;4.28;1.90;;;;;;;;;;5029433;28;20052;-74
2023/10/23 01:17:41;;;;;;;6.97;2.10;;;;;;;;;;5034594;28;20099;-73
2023/10/23 01:20:08;;;;;;;5.07;2.08;;;;;;;;;;5040096;28;20092;-73
2023/10/23 01:22:34;;;;;;;5.90;2.63;;;;;;;;;;5042006;28;20049;-73
2023/10/23 01:25:01;;;;;;;4.10;2.47;;;;;;;;;;5039580;28;20128;-73
2023/10/23 01:27:28;;;;;;;10.23;3.47;;;;;;;;;;5026080;28;20414;-73
2023/10/23 01:29:54;;;;;;;6.88;3.15;;;;;;;;;;5042377;28;20045;-74
2023/10/23 01:32:21;;;;;;;6.30;3.65;;;;;;;;;;5036098;28;20041;-73
2023/10/23 01:34:47;;;;;;;8.73;3.13;;;;;;;;;;5044536;28;20077;-73
2023/10/23 01:37:13;;;;;;;6.00;2.95;;;;;;;;;;5039936;28;20073;-73
2023/10/23 01:39:40;;;;;;;6.60;3.60;;;;;;;;;;5043689;28;20127;-73
2023/10/23 01:42:06;;;;;;;6.57;3.58;;;;;;;;;;5032409;28;20049;-73
2023/10/23 01:44:33;;;;;;;4.35;2.40;;;;;;;;;;5042818;28;20484;-73
2023/10/23 01:46:59;;;;;;;3.78;2.60;;;;;;;;;;5039697;28;20049;-73
2023/10/23 01:49:26;;;;;;;8.30;3.05;;;;;;;;;;5042134;28;20344;-73
2023/10/23 01:51:52;;;;;;;7.18;3.55;;;;;;;;;;5033539;28;20049;-73
2023/10/23 01:54:19;;;;;;;7.30;3.03;;;;;;;;;;5038067;28;20258;-73
2023/10/23 01:56:45;;;;;;;6.18;3.85;;;;;;;;;;5039646;28;20052;-74
2023/10/23 01:59:11;;;;;;;6.45;4.43;;;;;;;;;;5037956;28;20046;-73
2023/10/23 02:01:39;;;;;;;9.77;3.53;;;;;;;;;;5035740;28;20095;-73
2023/10/23 02:04:07;;;;;;;6.38;3.70;;;;;;;;;;5043710;28;20656;-73
2023/10/23 02:06:34;;;;;;;8.07;3.30;;;;;;;;;;5038699;28;20080;-73
2023/10/23 02:09:01;;;;;;;10.98;3.63;;;;;;;;;;5032037;28;20060;-73
2023/10/23 02:11:27;;;;;;;4.97;3.03;;;;;;;;;;5036926;28;20049;-73
2023/10/23 02:13:54;;;;;;;5.07;2.90;;;;;;;;;;5040763;28;20144;-74
2023/10/23 02:16:20;;;;;;;9.07;4.03;;;;;;;;;;5035294;28;20085;-73
2023/10/23 02:18:47;;;;;;;6.30;3.30;;;;;;;;;;5032347;28;20068;-73
2023/10/23 02:21:14;;;;;;;20.52;4.43;;;;;;;;;;5040699;28;20053;-73
2023/10/23 02:23:40;;;;;;;7.88;3.30;;;;;;;;;;5040821;28;20084;-73
2023/10/23 02:26:21;;;;;;;6.38;3.20;;;;;;;;;;5035399;28;20045;-73
2023/10/23 02:28:48;;;;;;;5.95;3.65;;;;;;;;;;5049534;28;20137;-73
2023/10/23 02:31:14;;;;;;;7.28;3.33;;;;;;;;;;5044825;28;20075;-73
2023/10/23 02:33:41;;;;;;;6.35;3.63;;;;;;;;;;5049306;28;20056;-73
2023/10/23 02:36:07;;;;;;;5.45;3.35;;;;;;;;;;5038193;28;20057;-73
2023/10/23 02:38:34;;;;;;;7.05;3.45;;;;;;;;;;5049359;28;20464;-73
2023/10/23 02:41:00;;;;;;;4.28;2.65;;;;;;;;;;5041487;28;20132;-73
2023/10/23 02:43:27;;;;;;;5.30;3.08;;;;;;;;;;5048865;28;20123;-73
2023/10/23 02:45:53;;;;;;;5.55;3.33;;;;;;;;;;5039292;28;20428;-73
2023/10/23 02:48:19;;;;;;;9.00;3.13;;;;;;;;;;5047938;28;20537;-73
2023/10/23 02:50:55;;;;;;;9.82;3.83;;;;;;;;;;5029338;28;20167;-73
2023/10/23 02:53:22;;;;;;;10.00;3.45;;;;;;;;;;5039085;28;20616;-72
2023/10/23 02:55:49;;;;;;;9.02;4.07;;;;;;;;;;5041250;28;20085;-73
2023/10/23 02:58:16;;;;;;;14.05;4.53;;;;;;;;;;5046608;28;20126;-73
2023/10/23 03:00:42;;;;;;;4.90;3.75;;;;;;;;;;5039136;28;20137;-73
2023/10/23 03:03:09;;;;;;;10.73;4.28;;;;;;;;;;5033526;28;20056;-73
2023/10/23 03:05:36;;;;;;;8.75;4.40;;;;;;;;;;5038750;28;20042;-73
2023/10/23 03:08:02;;;;;;;7.03;3.72;;;;;;;;;;5028756;28;20132;-73
2023/10/23 03:10:29;;;;;;;10.13;4.18;;;;;;;;;;5028354;28;20077;-73
2023/10/23 03:12:55;;;;;;;7.55;4.00;;;;;;;;;;5028875;28;20156;-73
2023/10/23 03:15:22;;;;;;;14.32;4.55;;;;;;;;;;5045219;28;20049;-73
2023/10/23 03:17:49;;;;;;;9.10;4.30;;;;;;;;;;5037258;28;20045;-73
2023/10/23 03:20:15;;;;;;;11.32;4.93;;;;;;;;;;5042731;28;20045;-73
2023/10/23 03:22:42;;;;;;;9.82;3.97;;;;;;;;;;5045204;28;20136;-72
2023/10/23 03:25:09;;;;;;;8.05;3.65;;;;;;;;;;5043785;28;20119;-73
2023/10/23 03:27:36;;;;;;;6.72;4.25;;;;;;;;;;5048362;28;20068;-73
2023/10/23 03:30:03;;;;;;;11.00;4.10;;;;;;;;;;5039856;28;20046;-73
2023/10/23 03:32:30;;;;;;;9.55;4.65;;;;;;;;;;5044891;28;20049;-73
2023/10/23 03:34:57;;;;;;;7.10;4.03;;;;;;;;;;5039536;28;20084;-73
2023/10/23 03:37:24;;;;;;;12.98;5.15;;;;;;;;;;5037864;28;20057;-73
2023/10/23 03:39:50;;;;;;;7.75;4.03;;;;;;;;;;5044507;28;20508;-73
2023/10/23 03:42:17;;;;;;;12.40;4.38;;;;;;;;;;5044402;28;20136;-73
2023/10/23 03:44:43;;;;;;;10.65;3.58;;;;;;;;;;5034482;28;20048;-73
2023/10/23 03:47:09;;;;;;;14.23;4.97;;;;;;;;;;5036113;28;20123;-73
2023/10/23 03:49:36;;;;;;;5.38;3.95;;;;;;;;;;5040939;28;20049;-73
2023/10/23 03:52:03;;;;;;;9.70;3.80;;;;;;;;;;5042385;28;20140;-73
2023/10/23 03:54:29;;;;;;;14.23;6.03;;;;;;;;;;5048082;28;20141;-73
2023/10/23 03:56:56;;;;;;;17.48;9.30;;;;;;;;;;5030383;28;20107;-74
2023/10/23 03:59:23;;;;;;;9.52;5.13;;;;;;;;;;5040966;28;20505;-73
2023/10/23 04:01:51;;;;;;;11.10;4.00;;;;;;;;;;5038282;28;20081;-73
2023/10/23 04:04:17;;;;;;;7.18;3.85;;;;;;;;;;5047884;28;20083;-73
2023/10/23 04:06:44;;;;;;;7.78;3.80;;;;;;;;;;5033355;28;20041;-75
2023/10/23 04:09:10;;;;;;;10.18;4.15;;;;;;;;;;5040984;28;20052;-74
2023/10/23 04:11:37;;;;;;;12.30;4.22;;;;;;;;;;5032459;28;20486;-73
2023/10/23 04:14:04;;;;;;;7.10;4.35;;;;;;;;;;5047508;28;20124;-73
2023/10/23 04:16:30;;;;;;;9.35;4.20;;;;;;;;;;5039124;28;20103;-74
2023/10/23 04:18:57;;;;;;;6.18;4.07;;;;;;;;;;5045672;28;20052;-73
2023/10/23 04:21:24;;;;;;;11.45;3.90;;;;;;;;;;5033055;28;20491;-74
2023/10/23 04:23:50;;;;;;;7.32;4.97;;;;;;;;;;5057494;28;20045;-73
2023/10/23 04:26:16;;;;;;;8.77;3.88;;;;;;;;;;5040427;28;20132;-74
2023/10/23 04:28:43;;;;;;;8.05;4.50;;;;;;;;;;5038780;28;20077;-73
2023/10/23 04:31:09;;;;;;;6.85;4.22;;;;;;;;;;5034903;28;20175;-73
2023/10/23 04:33:36;;;;;;;8.90;4.07;;;;;;;;;;5041795;28;20051;-72
2023/10/23 04:36:03;;;;;;;7.72;4.38;;;;;;;;;;5044812;28;20041;-73
2023/10/23 04:38:31;;;;;;;13.18;5.15;;;;;;;;;;5032338;28;20041;-73
2023/10/23 04:40:57;;;;;;;7.18;4.03;;;;;;;;;;5037084;28;20044;-73
2023/10/23 04:43:24;;;;;;;12.07;4.60;;;;;;;;;;5037433;28;20044;-74
2023/10/23 04:45:52;;;;;;;9.77;4.93;;;;;;;;;;5036293;28;20119;-73
2023/10/23 04:48:19;;;;;;;11.07;5.07;;;;;;;;;;5057665;28;20295;-73
2023/10/23 04:50:46;;;;;;;12.13;6.00;;;;;;;;;;5040343;28;20550;-73
2023/10/23 04:53:12;;;;;;;10.05;5.65;;;;;;;;;;5047150;28;20051;-73
2023/10/23 04:55:39;;;;;;;13.10;5.22;;;;;;;;;;5038234;28;20056;-73
2023/10/23 04:58:06;;;;;;;8.02;4.75;;;;;;;;;;5042632;28;20057;-73
2023/10/23 05:00:37;;;;;;;7.60;4.43;;;;;;;;;;5042465;28;20497;-74
2023/10/23 05:03:04;;;;;;;11.80;5.10;;;;;;;;;;5047089;28;20588;-73
2023/10/23 05:05:31;;;;;;;7.35;4.80;;;;;;;;;;5035345;28;20099;-73
2023/10/23 05:07:58;;;;;;;8.82;4.50;;;;;;;;;;5027756;28;20132;-73
2023/10/23 05:10:24;;;;;;;10.07;4.90;;;;;;;;;;5036369;28;20562;-73
2023/10/23 05:12:51;;;;;;;12.35;5.63;;;;;;;;;;5046318;28;20072;-73
2023/10/23 05:15:17;;;;;;;9.18;4.88;;;;;;;;;;5037815;28;20054;-73
2023/10/23 05:17:44;;;;;;;7.88;5.40;;;;;;;;;;5043588;28;20131;-73
2023/10/23 05:20:11;;;;;;;9.15;5.53;;;;;;;;;;5029339;28;20442;-73
2023/10/23 05:22:37;;;;;;;14.38;4.63;;;;;;;;;;5035022;28;20078;-72
2023/10/23 05:25:04;;;;;;;9.98;5.00;;;;;;;;;;5033300;28;20069;-73
2023/10/23 05:27:30;;;;;;;8.10;5.03;;;;;;;;;;5041712;28;20072;-73
2023/10/23 05:29:57;;;;;;;9.68;5.28;;;;;;;;;;5043272;28;20045;-72
2023/10/23 05:32:23;;;;;;;10.45;5.20;;;;;;;;;;5031185;28;20103;-73
2023/10/23 05:34:49;;;;;;;9.07;5.30;;;;;;;;;;5038457;28;20041;-73
2023/10/23 05:37:16;;;;;;;11.82;5.30;;;;;;;;;;5038749;28;20046;-74
2023/10/23 05:39:42;;;;;;;13.00;5.03;;;;;;;;;;5043334;28;20091;-74
2023/10/23 05:42:09;;;;;;;17.65;5.15;;;;;;;;;;5035644;28;20057;-73
2023/10/23 05:44:35;;;;;;;11.07;5.22;;;;;;;;;;5046794;28;20122;-75
2023/10/23 05:47:02;;;;;;;8.32;5.32;;;;;;;;;;5032938;28;20054;-75
2023/10/23 05:49:28;;;;;;;9.50;4.70;;;;;;;;;;5050402;28;20080;-75
2023/10/23 05:51:54;;;;;;;12.63;5.68;;;;;;;;;;5041249;28;20049;-75
2023/10/23 05:54:21;;;;;;;10.63;6.00;;;;;;;;;;5050292;28;20060;-74
2023/10/23 05:56:47;;;;;;;17.48;7.47;;;;;;;;;;5035102;28;20565;-74
2023/10/23 05:59:14;;;;;;;9.88;5.45;;;;;;;;;;5049623;28;20049;-76
2023/10/23 06:01:40;;;;;;;9.27;5.13;;;;;;;;;;5038447;28;20049;-74
2023/10/23 06:04:07;;;;;;;11.85;6.28;;;;;;;;;;5047706;28;20128;-73
2023/10/23 06:06:33;;;;;;;13.48;8.32;;;;;;;;;;5036556;28;20080;-74
2023/10/23 06:09:00;;;;;;;14.88;9.25;;;;;;;;;;5045209;28;20046;-73
2023/10/23 06:11:26;;;;;;;15.15;9.88;;;;;;;;;;5040605;28;20049;-76
2023/10/23 06:13:53;;;;;;;18.05;11.68;;;;;;;;;;5041349;28;20145;-75
2023/10/23 06:16:19;;;;;;;22.92;10.60;;;;;;;;;;5047986;28;20484;-74
2023/10/23 06:18:46;;;;;;;15.95;8.15;;;;;;;;;;5043741;28;20363;-73
2023/10/23 06:21:12;;;;;;;15.43;6.90;;;;;;;;;;5046889;28;20416;-74
2023/10/23 06:23:39;;;;;;;16.23;7.32;;;;;;;;;;5048318;28;20132;-75
2023/10/23 06:26:06;;;;;;;11.10;7.70;;;;;;;;;;5036284;28;20464;-73
2023/10/23 06:28:33;;;;;;;16.40;7.55;;;;;;;;;;5038258;28;20044;-74
2023/10/23 06:31:04;;;;;;;14.45;6.85;;;;;;;;;;5046759;28;20508;-72
2023/10/23 06:33:30;;;;;;;14.25;7.82;;;;;;;;;;5045483;28;20044;-74
2023/10/23 06:35:57;;;;;;;17.13;7.05;;;;;;;;;;5042974;28;20393;-74
2023/10/23 06:38:24;;;;;;;15.48;7.25;;;;;;;;;;5049862;28;20045;-75
2023/10/23 06:40:50;;;;;;;13.23;7.35;;;;;;;;;;5038405;28;20053;-74
2023/10/23 06:43:17;;;;;;;16.52;8.77;;;;;;;;;;5045086;28;20717;-74
2023/10/23 06:45:47;;;;;;;13.52;7.28;;;;;;;;;;5042755;28;20049;-74
2023/10/23 06:48:22;;;;;;;12.73;7.85;;;;;;;;;;5049077;28;20118;-75
2023/10/23 06:50:49;;;;;;;11.85;6.80;;;;;;;;;;5038579;28;20084;-75
2023/10/23 06:53:15;;;;;;;18.85;5.82;;;;;;;;;;5046727;28;20512;-75
2023/10/23 06:55:48;;;;;;;22.15;6.72;;;;;;;;;;5037936;28;20241;-76
2023/10/23 06:58:15;;;;;;;33.05;8.73;;;;;;;;;;5049485;28;20460;-74
2023/10/23 07:00:41;;;;;;;10.75;6.10;;;;;;;;;;5035436;28;20085;-75
2023/10/23 07:03:08;;;;;;;20.10;7.38;;;;;;;;;;5045240;28;20128;-74
2023/10/23 07:05:34;;;;;;;13.60;6.70;;;;;;;;;;5029068;28;20061;-74
2023/10/23 07:08:01;;;;;;;13.98;7.60;;;;;;;;;;5035066;28;20111;-74
2023/10/23 07:10:27;;;;;;;17.27;6.57;;;;;;;;;;5037141;28;20085;-77
2023/10/23 07:12:55;;;;;;;18.90;8.98;;;;;;;;;;5044839;28;20119;-74
2023/10/23 07:15:23;;;;;;;13.93;6.47;;;;;;;;;;5042570;28;20148;-74
2023/10/23 07:17:49;;;;;;;9.15;5.85;;;;;;;;;;5032136;28;20050;-74
2023/10/23 07:20:17;;;;;;;20.55;6.38;;;;;;;;;;5039672;28;20049;-74
2023/10/23 07:22:43;;;;;;;12.18;6.75;;;;;;;;;;5057568;28;20406;-74
2023/10/23 07:25:10;;;;;;;17.35;7.72;;;;;;;;;;5040261;28;20489;-74
2023/10/23 07:27:39;;;;;;;12.88;6.78;;;;;;;;;;5056154;28;20079;-74
2023/10/23 07:30:05;;;;;;;15.75;7.43;;;;;;;;;;5059801;28;20083;-74
2023/10/23 07:32:34;;;;;;;10.65;6.70;;;;;;;;;;5050885;28;20045;-71
2023/10/23 07:35:01;;;;;;;12.70;7.93;;;;;;;;;;5044906;28;20071;-71
2023/10/23 07:37:28;;;;;;;17.77;9.35;;;;;;;;;;5041342;28;20136;-72
2023/10/23 07:39:55;;;;;;;15.15;9.25;;;;;;;;;;5044296;28;20073;-70
2023/10/23 07:42:21;;;;;;;15.73;9.00;;;;;;;;;;5048073;28;20360;-70
2023/10/23 07:44:48;;;;;;;15.77;10.02;;;;;;;;;;5043294;28;20438;-71
2023/10/23 07:47:14;;;;;;;18.70;10.95;;;;;;;;;;5047840;28;20579;-71
2023/10/23 07:49:41;;;;;;;19.55;10.40;;;;;;;;;;5041520;28;20049;-73
2023/10/23 07:52:09;;;;;;;15.32;10.07;;;;;;;;;;5033320;28;20049;-74
2023/10/23 07:54:35;;;;;;;12.30;9.80;;;;;;;;;;5038659;28;20046;-72
2023/10/23 07:57:02;;;;;;;16.63;10.65;;;;;;;;;;5041072;28;20106;-70
2023/10/23 07:59:29;;;;;;;14.10;9.30;;;;;;;;;;5038043;28;20041;-71
2023/10/23 08:01:56;;;;;;;12.88;8.85;;;;;;;;;;5035007;28;20485;-72
2023/10/23 08:04:23;;;;;;;15.65;8.57;;;;;;;;;;5042922;28;20059;-72
2023/10/23 08:06:49;;;;;;;13.45;6.65;;;;;;;;;;5036675;28;20053;-70
2023/10/23 08:09:16;;;;;;;11.23;6.85;;;;;;;;;;5030736;28;20050;-71
2023/10/23 08:11:42;;;;;;;11.60;7.40;;;;;;;;;;5036361;28;20048;-73
2023/10/23 08:14:08;;;;;;;13.52;6.85;;;;;;;;;;5038227;28;20130;-71
2023/10/23 08:16:35;;;;;;;8.60;5.95;;;;;;;;;;5042734;28;20092;-72
2023/10/23 08:19:02;;;;;;;10.07;6.00;;;;;;;;;;5045516;28;20045;-72
2023/10/23 08:21:29;;;;;;;13.02;6.78;;;;;;;;;;5038348;28;20052;-71
2023/10/23 08:23:58;;;;;;;12.30;5.82;;;;;;;;;;5047329;28;20056;-74
2023/10/23 08:26:24;;;;;;;11.52;5.88;;;;;;;;;;5029619;28;20042;-72
2023/10/23 08:28:51;;;;;;;10.38;6.00;;;;;;;;;;5026721;28;20116;-72
2023/10/23 08:31:21;;;;;;;14.20;6.25;;;;;;;;;;5035318;28;20115;-70
2023/10/23 08:34:04;;;;;;;9.15;5.95;;;;;;;;;;5046728;28;20056;-74
2023/10/23 08:36:31;;;;;;;10.50;6.35;;;;;;;;;;5031748;28;20045;-71
2023/10/23 08:38:57;;;;;;;13.10;6.57;;;;;;;;;;5045600;28;20045;-73
2023/10/23 08:41:25;;;;;;;12.20;5.30;;;;;;;;;;5042565;28;20409;-71
2023/10/23 08:43:52;;;;;;;11.05;5.65;;;;;;;;;;5032529;28;20560;-71
2023/10/23 08:46:19;;;;;;;10.90;5.32;;;;;;;;;;5045587;28;20072;-74
2023/10/23 08:48:46;;;;;;;9.38;5.95;;;;;;;;;;5044033;28;20132;-73
2023/10/23 08:51:14;;;;;;;37.55;6.05;;;;;;;;;;5044400;28;20102;-70
2023/10/23 08:53:49;;;;;;;9.23;5.57;;;;;;;;;;5034366;28;20548;-74
2023/10/23 08:56:37;;;;;;;7.22;5.40;;;;;;;;;;5042160;28;20124;-74
2023/10/23 08:59:03;;;;;;;7.45;4.05;;;;;;;;;;5038816;28;20048;-71
2023/10/23 09:01:31;;;;;;;12.48;5.45;;;;;;;;;;5030568;28;20135;-71
2023/10/23 09:04:00;;;;;;;8.32;5.43;;;;;;;;;;5046256;28;20233;-71
2023/10/23 09:06:32;;;;;;;8.70;5.03;;;;;;;;;;5037683;28;20517;-71
2023/10/23 09:08:59;;;;;;;6.38;4.53;;;;;;;;;;5046522;28;20103;-72
2023/10/23 09:11:39;;;;;;;8.00;5.10;;;;;;;;;;5031831;28;20045;-72
2023/10/23 09:14:06;;;;;;;7.68;5.38;;;;;;;;;;5061312;28;20553;-71
2023/10/23 09:16:33;;;;;;;11.65;4.63;;;;;;;;;;5041408;28;20052;-70
2023/10/23 09:18:59;;;;;;;5.05;4.13;;;;;;;;;;5046058;28;20072;-72
2023/10/23 09:21:26;;;;;;;6.72;3.97;;;;;;;;;;5045947;28;20053;-72
2023/10/23 09:23:58;;;;;;;7.03;5.18;;;;;;;;;;5044162;28;20672;-73
2023/10/23 09:26:25;;;;;;;7.35;4.40;;;;;;;;;;5037429;28;20053;-74
2023/10/23 09:28:52;;;;;;;8.43;4.30;;;;;;;;;;5030399;28;20125;-73
2023/10/23 09:31:19;;;;;;;10.48;4.75;;;;;;;;;;5029142;28;20129;-70
2023/10/23 09:33:46;;;;;;;6.28;4.50;;;;;;;;;;5037514;28;20107;-71
2023/10/23 09:36:13;;;;;;;10.68;5.82;;;;;;;;;;5037413;28;20239;-72
2023/10/23 09:38:43;;;;;;;11.48;5.50;;;;;;;;;;5034345;28;20482;-71
2023/10/23 09:41:10;;;;;;;6.53;4.90;;;;;;;;;;5030773;28;20048;-72
2023/10/23 09:43:45;;;;;;;5.82;4.18;;;;;;;;;;5034182;28;20061;-73
2023/10/23 09:46:12;;;;;;;5.30;3.97;;;;;;;;;;5026345;28;20452;-71
2023/10/23 09:48:43;;;;;;;9.27;4.65;;;;;;;;;;5028024;28;20054;-72
2023/10/23 09:51:15;;;;;;;8.82;4.43;;;;;;;;;;5037080;28;20051;-72
2023/10/23 09:53:48;;;;;;;6.22;3.92;;;;;;;;;;5038208;28;20102;-73
2023/10/23 09:56:21;;;;;;;10.80;4.88;;;;;;;;;;5032876;28;20037;-73
2023/10/23 09:58:52;;;;;;;8.38;4.07;;;;;;;;;;5045697;28;20101;-69
2023/10/23 10:01:18;;;;;;;14.68;5.32;;;;;;;;;;5031657;28;20103;-72
2023/10/23 10:03:47;;;;;;;10.27;5.10;;;;;;;;;;5040370;28;20049;-68
2023/10/23 10:06:15;;;;;;;10.77;3.55;;;;;;;;;;5031589;28;20084;-72
2023/10/23 10:08:48;;;;;;;10.55;4.50;;;;;;;;;;5047950;28;20073;-72
2023/10/23 10:11:15;;;;;;;8.15;4.25;;;;;;;;;;5040861;28;20048;-73
2023/10/23 10:13:42;;;;;;;9.07;4.18;;;;;;;;;;5045914;28;20136;-74
2023/10/23 10:16:10;;;;;;;8.73;5.38;;;;;;;;;;5038112;28;20132;-72
2023/10/23 10:18:38;;;;;;;10.07;4.15;;;;;;;;;;5042366;28;20550;-72
2023/10/23 10:21:08;;;;;;;7.10;4.75;;;;;;;;;;5026684;28;20561;-72
2023/10/23 10:23:35;;;;;;;13.98;4.97;;;;;;;;;;5036382;28;20434;-71
2023/10/23 10:26:03;;;;;;;7.38;4.15;;;;;;;;;;5035236;28;20099;-70
2023/10/23 10:28:30;;;;;;;7.30;3.38;;;;;;;;;;5035438;28;20042;-72
2023/10/23 10:30:56;;;;;;;5.35;3.55;;;;;;;;;;5034783;28;20132;-72
2023/10/23 10:33:24;;;;;;;5.97;3.58;;;;;;;;;;5028326;28;20620;-73
2023/10/23 10:36:11;;;;;;;6.82;4.03;;;;;;;;;;5044976;28;20041;-73
2023/10/23 10:38:38;;;;;;;10.38;4.03;;;;;;;;;;5044841;28;20049;-72
2023/10/23 10:41:05;;;;;;;7.53;3.63;;;;;;;;;;5036455;28;20089;-73
2023/10/23 10:43:33;;;;;;;5.20;3.75;;;;;;;;;;5033909;28;20269;-73
2023/10/23 10:46:04;;;;;;;6.93;4.03;;;;;;;;;;5042503;28;20117;-71
2023/10/23 10:48:40;;;;;;;8.23;4.40;;;;;;;;;;5042843;28;20041;-70
2023/10/23 10:51:07;;;;;;;6.93;4.18;;;;;;;;;;5039149;28;20069;-73
2023/10/23 10:53:37;;;;;;;7.97;3.35;;;;;;;;;;5048175;28;20216;-73
2023/10/23 10:56:08;;;;;;;7.40;3.25;;;;;;;;;;5035802;28;20146;-74
2023/10/23 10:58:37;;;;;;;5.80;3.47;;;;;;;;;;5045289;28;20051;-71
2023/10/23 11:01:08;;;;;;;5.30;3.08;;;;;;;;;;5040073;28;20041;-72
2023/10/23 11:03:38;;;;;;;19.40;4.90;;;;;;;;;;5048627;28;20279;-73
2023/10/23 11:06:06;;;;;;;3.33;2.57;;;;;;;;;;5034739;28;20443;-72
2023/10/23 11:08:34;;;;;;;7.90;3.28;;;;;;;;;;5044559;28;20079;-71
2023/10/23 11:11:04;;;;;;;5.30;3.22;;;;;;;;;;5034439;28;20041;-71
2023/10/23 11:13:33;;;;;;;9.93;3.40;;;;;;;;;;5043392;28;20046;-71
2023/10/23 11:16:00;;;;;;;5.18;3.50;;;;;;;;;;5032557;28;20123;-73
2023/10/23 11:18:29;;;;;;;5.35;3.10;;;;;;;;;;5044086;28;20450;-73
2023/10/23 11:20:59;;;;;;;5.93;3.25;;;;;;;;;;5045623;28;20119;-72
2023/10/23 11:23:29;;;;;;;6.40;2.80;;;;;;;;;;5036018;28;20374;-73
2023/10/23 11:25:56;;;;;;;7.93;3.33;;;;;;;;;;5032637;28;20565;-75
2023/10/23 11:28:24;;;;;;;5.55;3.55;;;;;;;;;;5038439;28;20052;-72
2023/10/23 11:30:55;;;;;;;8.63;2.95;;;;;;;;;;5036024;28;20057;-67
2023/10/23 11:33:23;;;;;;;8.43;3.60;;;;;;;;;;5030187;28;20176;-70
2023/10/23 11:35:54;;;;;;;6.22;3.28;;;;;;;;;;5030376;28;20080;-70
2023/10/23 11:38:23;;;;;;;5.82;3.20;;;;;;;;;;5031837;28;20067;-69
2023/10/23 11:40:50;;;;;;;23.52;9.23;;;;;;;;;;5030381;28;20045;-69
2023/10/23 11:43:17;;;;;;;6.03;3.95;;;;;;;;;;5027465;28;20135;-70
2023/10/23 11:45:45;;;;;;;6.18;3.70;;;;;;;;;;5028250;28;20041;-69
2023/10/23 11:48:13;;;;;;;6.88;4.15;;;;;;;;;;5032582;28;20059;-70
2023/10/23 11:50:42;;;;;;;5.45;4.22;;;;;;;;;;5029870;28;20495;-70
2023/10/23 11:53:09;;;;;;;9.57;4.75;;;;;;;;;;5040777;28;20049;-74
2023/10/23 11:55:36;;;;;;;6.15;3.78;;;;;;;;;;5036987;28;20266;-70
2023/10/23 11:58:03;;;;;;;7.30;3.85;;;;;;;;;;5038271;28;20103;-70
2023/10/23 12:00:31;;;;;;;9.45;4.40;;;;;;;;;;5029879;28;20049;-71
2023/10/23 12:02:57;;;;;;;5.90;4.53;;;;;;;;;;5026623;28;20142;-70
2023/10/23 12:05:25;;;;;;;8.98;4.70;;;;;;;;;;5028527;28;20057;-71
2023/10/23 12:07:55;;;;;;;7.38;4.95;;;;;;;;;;5032060;28;20155;-69
2023/10/23 12:10:24;;;;;;;8.48;4.20;;;;;;;;;;5030697;28;20683;-69
2023/10/23 12:12:52;;;;;;;8.35;3.97;;;;;;;;;;5031113;28;20383;-68
2023/10/23 12:15:20;;;;;;;9.30;4.63;;;;;;;;;;5029082;28;20053;-70
2023/10/23 12:17:46;;;;;;;8.43;3.85;;;;;;;;;;5033821;28;20060;-70
2023/10/23 12:20:16;;;;;;;6.35;3.42;;;;;;;;;;5034333;28;20406;-72
2023/10/23 12:22:44;;;;;;;6.43;3.25;;;;;;;;;;5036433;28;20060;-70
2023/10/23 12:25:11;;;;;;;4.22;3.10;;;;;;;;;;5032491;28;20056;-73
2023/10/23 12:27:39;;;;;;;5.97;3.47;;;;;;;;;;5035626;28;20158;-71
2023/10/23 12:30:06;;;;;;;5.53;3.55;;;;;;;;;;5025776;28;20460;-71
2023/10/23 12:32:35;;;;;;;6.85;2.58;;;;;;;;;;5034733;28;20364;-69
2023/10/23 12:35:27;;;;;;;5.65;2.28;;;;;;;;;;5032938;28;20052;-71
2023/10/23 12:38:05;;;;;;;3.38;2.30;;;;;;;;;;5028509;28;20064;-72
2023/10/23 12:40:31;;;;;;;5.20;2.65;;;;;;;;;;5042020;28;20132;-70
2023/10/23 12:43:02;;;;;;;;;;;;;;;;;;5036994;28;20108;-72
2023/10/23 12:45:29;;;;;;;3.83;2.67;;;;;;;;;;5031174;28;19968;-71
2023/10/23 12:47:56;;;;;;;4.18;2.95;;;;;;;;;;5036194;28;20052;-73
2023/10/23 12:50:22;;;;;;;8.20;3.47;;;;;;;;;;5030060;28;20049;-72
2023/10/23 12:52:49;;;;;;;5.03;2.58;;;;;;;;;;5038900;28;20053;-72
2023/10/23 12:55:15;;;;;;;6.93;4.00;;;;;;;;;;5030734;28;20045;-72
2023/10/23 12:57:42;;;;;;;7.28;3.90;;;;;;;;;;5044500;28;20084;-73
2023/10/23 13:00:09;;;;;;;4.38;1.98;;;;;;;;;;5031768;28;20128;-74
2023/10/23 13:02:36;;;;;;;3.78;2.47;;;;;;;;;;5036005;28;20123;-70
2023/10/23 13:05:03;;;;;;;4.03;2.00;;;;;;;;;;5036512;28;20505;-70
2023/10/23 13:07:29;;;;;;;5.70;3.35;;;;;;;;;;5035124;28;20056;-70
2023/10/23 13:09:56;;;;;;;6.25;3.05;;;;;;;;;;5029559;28;20601;-72
2023/10/23 13:12:27;;;;;;;6.28;3.92;;;;;;;;;;5036158;28;20044;-70
2023/10/23 13:15:07;;;;;;;7.35;4.03;;;;;;;;;;5032432;28;20071;-71
2023/10/23 13:17:47;;;;;;;7.35;3.90;;;;;;;;;;5048709;28;20068;-71
2023/10/23 13:20:14;;;;;;;5.22;4.15;;;;;;;;;;5035265;28;20045;-70
2023/10/23 13:23:03;;;;;;;6.68;4.03;;;;;;;;;;5030037;28;20040;-74
2023/10/23 13:25:32;;;;;;;7.38;4.30;;;;;;;;;;5026936;28;20057;-70
2023/10/23 13:27:59;;;;;;;5.95;4.15;;;;;;;;;;5032189;28;20242;-72
2023/10/23 13:30:27;;;;;;;6.05;4.18;;;;;;;;;;5035880;28;20116;-73
2023/10/23 13:32:53;;;;;;;7.72;3.70;;;;;;;;;;5048494;28;20050;-70
2023/10/23 13:35:20;;;;;;;9.35;3.90;;;;;;;;;;5032668;28;20065;-71
2023/10/23 13:37:46;;;;;;;6.82;3.38;;;;;;;;;;5042929;28;20064;-73
2023/10/23 13:40:14;;;;;;;8.35;4.13;;;;;;;;;;5035122;28;20041;-72
2023/10/23 13:42:41;;;;;;;8.40;3.70;;;;;;;;;;5036478;28;20079;-72
2023/10/23 13:45:09;;;;;;;10.38;3.88;;;;;;;;;;5028987;28;20508;-78
2023/10/23 13:47:35;;;;;;;5.45;4.40;;;;;;;;;;5042062;28;20072;-72
2023/10/23 13:50:02;;;;;;;8.82;4.38;;;;;;;;;;5033114;28;20051;-71
2023/10/23 13:52:28;;;;;;;10.23;4.15;;;;;;;;;;5032740;28;20124;-70
2023/10/23 13:54:55;;;;;;;6.00;3.78;;;;;;;;;;5034052;28;20549;-70
2023/10/23 13:57:22;;;;;;;7.53;5.53;;;;;;;;;;5038354;28;20045;-71
2023/10/23 13:59:48;;;;;;;8.77;3.80;;;;;;;;;;5043719;28;20106;-71
2023/10/23 14:02:15;;;;;;;6.95;4.03;;;;;;;;;;5027764;28;20088;-73
2023/10/23 14:04:41;;;;;;;4.18;3.53;;;;;;;;;;5035931;28;20078;-73
2023/10/23 14:07:11;;;;;;;8.23;4.75;;;;;;;;;;5030285;28;20667;-71
2023/10/23 14:09:38;;;;;;;6.88;4.47;;;;;;;;;;5047582;28;20047;-71
2023/10/23 14:12:15;;;;;;;6.32;4.18;;;;;;;;;;5037791;28;20045;-71
2023/10/23 14:14:41;;;;;;;6.78;4.22;;;;;;;;;;5045548;28;20057;-72
2023/10/23 14:17:08;;;;;;;7.88;4.15;;;;;;;;;;5036495;28;20075;-72
2023/10/23 14:19:35;;;;;;;9.15;4.07;;;;;;;;;;5038472;28;20057;-71
2023/10/23 14:22:13;;;;;;;8.23;3.50;;;;;;;;;;5039182;28;20088;-71
2023/10/23 14:24:40;;;;;;;9.13;4.32;;;;;;;;;;5037367;28;20075;-73
2023/10/23 14:27:07;;;;;;;6.35;3.58;;;;;;;;;;5044473;28;20046;-73
2023/10/23 14:29:33;;;;;;;6.15;3.90;;;;;;;;;;5029348;28;20073;-71
2023/10/23 14:32:01;;;;;;;5.95;2.88;;;;;;;;;;5035772;28;20080;-71
2023/10/23 14:34:28;;;;;;;5.68;3.53;;;;;;;;;;5038650;28;20088;-71
2023/10/23 14:36:55;;;;;;;5.07;3.10;;;;;;;;;;5031733;28;20041;-73
2023/10/23 14:39:29;;;;;;;7.60;3.40;;;;;;;;;;5048020;28;20041;-71
2023/10/23 14:41:56;;;;;;;7.80;3.13;;;;;;;;;;5033125;28;20045;-70